createdAt,value
2022-12-11T00:02:06.188Z,-2.86
2022-12-11T00:06:13.756Z,-2.88
2022-12-11T00:10:15.318Z,-2.95
2022-12-11T00:14:16.833Z,-2.93
2022-12-11T00:18:18.304Z,-3.31
2022-12-11T00:22:19.962Z,-3.07
2022-12-11T00:26:21.765Z,-3.07
2022-12-11T00:30:23.222Z,-3.25
2022-12-11T00:34:24.755Z,-3.19
2022-12-11T00:38:26.280Z,-3.09
2022-12-11T00:42:27.831Z,-3.24
2022-12-11T00:46:29.307Z,-3.22
2022-12-11T00:50:30.790Z,-3.19
2022-12-11T00:54:33.579Z,-3.10
2022-12-11T00:58:35.047Z,-3.17
2022-12-11T01:02:36.524Z,-3.00
2022-12-11T01:06:39.300Z,-3.11
2022-12-11T01:10:40.787Z,-3.16
2022-12-11T01:14:42.224Z,-3.03
2022-12-11T01:18:44.316Z,-3.07
2022-12-11T01:22:45.863Z,-3.17
2022-12-11T01:26:47.311Z,-3.04
2022-12-11T01:30:48.797Z,-2.98
2022-12-11T01:34:50.372Z,-3.12
2022-12-11T01:38:53.545Z,-3.12
2022-12-11T01:42:55.197Z,-3.22
2022-12-11T01:46:56.616Z,-3.01
2022-12-11T01:51:04.967Z,-3.16
2022-12-11T01:55:07.509Z,-3.05
2022-12-11T01:59:09.973Z,-2.93
2022-12-11T02:03:11.432Z,-2.95
2022-12-11T02:07:12.941Z,-3.00
2022-12-11T02:11:23.122Z,-3.10
2022-12-11T02:15:27.289Z,-2.94
2022-12-11T02:19:55.666Z,-3.07
2022-12-11T02:24:34.447Z,-2.95
2022-12-11T02:28:46.186Z,-3.12
2022-12-11T02:32:56.911Z,-3.07
2022-12-11T02:37:03.850Z,-3.04
2022-12-11T02:41:07.365Z,-2.92
2022-12-11T02:45:11.408Z,-3.15
2022-12-11T02:49:14.895Z,-3.09
2022-12-11T02:53:20.122Z,-3.17
2022-12-11T02:57:25.303Z,-3.12
2022-12-11T03:01:28.002Z,-3.19
2022-12-11T03:05:30.157Z,-3.04
2022-12-11T03:09:31.918Z,-3.31
2022-12-11T03:13:33.376Z,-3.17
2022-12-11T03:17:43.575Z,-3.21
2022-12-11T03:21:48.775Z,-3.20
2022-12-11T03:26:01.153Z,-3.23
2022-12-11T03:30:08.616Z,-3.18
2022-12-11T03:34:18.275Z,-3.10
2022-12-11T03:38:24.613Z,-3.01
2022-12-11T03:42:26.852Z,-3.17
2022-12-11T03:46:33.519Z,-3.31
2022-12-11T03:50:36.478Z,-3.24
2022-12-11T03:54:40.665Z,-3.09
2022-12-11T03:58:42.146Z,-3.13
2022-12-11T04:02:44.944Z,-3.27
2022-12-11T04:06:46.673Z,-3.15
2022-12-11T04:10:49.122Z,-3.21
2022-12-11T04:15:02.369Z,-3.19
2022-12-11T04:19:22.938Z,-3.21
2022-12-11T04:23:43.149Z,-3.31
2022-12-11T04:27:50.142Z,-3.42
2022-12-11T04:31:51.748Z,-3.41
2022-12-11T04:35:53.268Z,-3.29
2022-12-11T04:39:54.757Z,-3.18
2022-12-11T04:43:56.221Z,-3.37
2022-12-11T04:47:57.649Z,-3.31
2022-12-11T04:51:59.079Z,-3.37
2022-12-11T04:56:00.592Z,-3.19
2022-12-11T05:00:04.732Z,-3.20
2022-12-11T05:04:06.166Z,-3.28
2022-12-11T05:08:08.235Z,-3.27
2022-12-11T05:12:09.704Z,-3.40
2022-12-11T05:16:15.039Z,-3.36
2022-12-11T05:20:16.798Z,-3.23
2022-12-11T05:24:18.274Z,-3.18
2022-12-11T05:28:19.814Z,-3.13
2022-12-11T05:32:21.274Z,-3.16
2022-12-11T05:36:27.830Z,-3.07
2022-12-11T05:40:29.309Z,-3.23
2022-12-11T05:44:31.887Z,-3.20
2022-12-11T05:48:33.620Z,-3.32
2022-12-11T05:52:35.088Z,-3.25
2022-12-11T05:56:37.318Z,-3.16
2022-12-11T06:00:41.707Z,-3.27
2022-12-11T06:04:43.143Z,-3.16
2022-12-11T06:08:44.718Z,-3.33
2022-12-11T06:12:46.132Z,-3.21
2022-12-11T06:16:47.600Z,-3.26
2022-12-11T06:20:49.056Z,-3.16
2022-12-11T06:24:50.452Z,-2.98
2022-12-11T06:28:52.322Z,-2.91
2022-12-11T06:32:53.841Z,-2.89
2022-12-11T06:36:55.320Z,-2.92
2022-12-11T06:40:58.434Z,-2.76
2022-12-11T06:45:00.210Z,-2.77
2022-12-11T06:49:01.647Z,-2.79
2022-12-11T06:53:03.122Z,-2.80
2022-12-11T06:57:05.159Z,-2.82
2022-12-11T07:01:16.204Z,-2.84
2022-12-11T07:05:17.763Z,-2.91
2022-12-11T07:09:19.603Z,-2.85
2022-12-11T07:13:21.026Z,-3.01
2022-12-11T07:17:22.422Z,-2.94
2022-12-11T07:21:23.929Z,-3.00
2022-12-11T07:25:25.328Z,-2.93
2022-12-11T07:29:26.753Z,-2.92
2022-12-11T07:33:28.208Z,-2.93
2022-12-11T07:37:29.628Z,-2.99
2022-12-11T07:41:31.818Z,-3.06
2022-12-11T07:45:33.287Z,-3.10
2022-12-11T07:49:34.784Z,-3.06
2022-12-11T07:53:36.289Z,-3.12
2022-12-11T07:57:37.692Z,-3.07
2022-12-11T08:01:39.857Z,-3.23
2022-12-11T08:05:49.362Z,-3.19
2022-12-11T08:09:50.850Z,-3.09
2022-12-11T08:13:52.786Z,-3.04
2022-12-11T08:17:54.201Z,-3.00
2022-12-11T08:21:55.611Z,-3.14
2022-12-11T08:25:57.011Z,-3.11
2022-12-11T08:29:58.417Z,-3.23
2022-12-11T08:34:00.202Z,-3.27
2022-12-11T08:38:01.581Z,-3.16
2022-12-11T08:42:03.008Z,-3.03
2022-12-11T08:46:04.595Z,-3.07
2022-12-11T08:50:06.454Z,-3.09
2022-12-11T08:54:09.349Z,-3.19
2022-12-11T08:58:10.825Z,-3.11
2022-12-11T09:02:15.297Z,-3.02
2022-12-11T09:06:18.961Z,-2.89
2022-12-11T09:10:20.884Z,-2.89
2022-12-11T09:14:22.585Z,-3.05
2022-12-11T09:18:24.141Z,-2.98
2022-12-11T09:22:25.658Z,-2.94
2022-12-11T09:26:29.194Z,-2.90
2022-12-11T09:30:30.688Z,-2.88
2022-12-11T09:34:32.396Z,-2.61
2022-12-11T09:38:34.759Z,-2.87
2022-12-11T09:43:00.410Z,-2.90
2022-12-11T09:47:02.098Z,-2.87
2022-12-11T09:51:14.387Z,-2.91
2022-12-11T09:55:20.490Z,-2.91
2022-12-11T09:59:21.856Z,-2.94
2022-12-11T10:03:38.202Z,-2.92
2022-12-11T10:07:52.695Z,-2.98
2022-12-11T10:12:37.864Z,-2.99
2022-12-11T10:16:43.768Z,-2.82
2022-12-11T10:20:45.483Z,-2.72
2022-12-11T10:25:11.051Z,-2.66
2022-12-11T10:29:16.034Z,-2.53
2022-12-11T10:33:22.448Z,-2.59
2022-12-11T10:37:24.238Z,-2.61
2022-12-11T10:41:39.161Z,-2.59
2022-12-11T10:45:50.505Z,-2.61
2022-12-11T10:49:58.552Z,-2.67
2022-12-11T10:54:32.415Z,-2.74
2022-12-11T10:58:39.846Z,-2.64
2022-12-11T11:02:44.956Z,-2.53
2022-12-11T11:06:49.828Z,-2.60
2022-12-11T11:10:58.679Z,-2.85
2022-12-11T11:15:12.636Z,-2.60
2022-12-11T11:19:32.239Z,-2.85
2022-12-11T11:23:36.718Z,-2.82
2022-12-11T11:27:45.727Z,-2.83
2022-12-11T11:31:47.242Z,-2.76
2022-12-11T11:35:53.001Z,-2.74
2022-12-11T11:40:01.818Z,-2.79
2022-12-11T11:44:07.065Z,-2.68
2022-12-11T11:48:34.163Z,-2.37
2022-12-11T11:52:51.304Z,-2.55
2022-12-11T11:56:56.140Z,-2.66
2022-12-11T12:00:57.568Z,-2.77
2022-12-11T12:04:59.021Z,-2.74
2022-12-11T12:09:22.389Z,-2.52
2022-12-11T12:13:52.326Z,-2.48
2022-12-11T12:18:06.365Z,-2.76
2022-12-11T12:22:43.189Z,-2.57
2022-12-11T12:26:55.838Z,-2.46
2022-12-11T12:31:09.224Z,-2.71
2022-12-11T12:35:31.840Z,-2.40
2022-12-11T12:39:50.348Z,-2.39
2022-12-11T12:44:06.676Z,-2.61
2022-12-11T12:48:09.698Z,-2.62
2022-12-11T12:52:29.424Z,-2.43
2022-12-11T12:56:33.202Z,-2.36
2022-12-11T13:00:37.879Z,-2.48
2022-12-11T13:05:01.732Z,-2.42
2022-12-11T13:09:14.995Z,-2.86
2022-12-11T13:13:32.584Z,-2.69
2022-12-11T13:17:38.900Z,-2.69
2022-12-11T13:21:40.368Z,-2.53
2022-12-11T13:25:48.711Z,-2.44
2022-12-11T13:29:50.406Z,-2.65
2022-12-11T13:33:54.864Z,-2.42
2022-12-11T13:38:04.279Z,-2.11
2022-12-11T13:42:18.434Z,-1.98
2022-12-11T13:46:25.602Z,-2.20
2022-12-11T13:50:34.168Z,-2.31
2022-12-11T13:54:36.463Z,-2.46
2022-12-11T13:58:39.135Z,-2.50
2022-12-11T14:02:42.510Z,-2.27
2022-12-11T14:06:45.200Z,-2.26
2022-12-11T14:10:52.565Z,-2.50
2022-12-11T14:14:56.965Z,-2.42
2022-12-11T14:19:06.111Z,-2.34
2022-12-11T14:23:19.454Z,-2.35
2022-12-11T14:27:25.143Z,-2.58
2022-12-11T14:31:38.994Z,-2.63
2022-12-11T14:35:53.599Z,-2.67
2022-12-11T14:40:10.922Z,-2.53
2022-12-11T14:44:15.865Z,-2.74
2022-12-11T14:48:22.557Z,-2.61
2022-12-11T14:52:31.212Z,-2.50
2022-12-11T14:56:33.295Z,-2.64
2022-12-11T15:00:37.476Z,-2.87
2022-12-11T15:04:40.320Z,-2.63
2022-12-11T15:08:48.908Z,-2.64
2022-12-11T15:12:54.854Z,-2.66
2022-12-11T15:16:57.561Z,-2.59
2022-12-11T15:21:03.098Z,-2.47
2022-12-11T15:25:05.868Z,-2.67
2022-12-11T15:29:26.806Z,-2.70
2022-12-11T15:33:34.091Z,-2.45
2022-12-11T15:37:43.489Z,-2.72
2022-12-11T15:41:44.946Z,-2.54
2022-12-11T15:45:49.183Z,-2.58
2022-12-11T15:50:14.045Z,-2.57
2022-12-11T15:54:15.602Z,-2.70
2022-12-11T15:58:24.313Z,-2.50
2022-12-11T16:06:46.258Z,-2.58
2022-12-11T16:10:48.490Z,-2.78
2022-12-11T16:14:49.976Z,-2.74
2022-12-11T16:18:51.684Z,-2.72
2022-12-11T16:22:55.474Z,-2.64
2022-12-11T16:27:08.626Z,-2.72
2022-12-11T16:31:19.621Z,-2.71
2022-12-11T16:35:23.601Z,-2.60
2022-12-11T16:39:25.483Z,-2.74
2022-12-11T16:43:26.921Z,-2.93
2022-12-11T16:47:29.948Z,-3.00
2022-12-11T16:51:37.638Z,-2.49
2022-12-11T16:55:45.449Z,-2.73
2022-12-11T16:59:50.023Z,-2.70
2022-12-11T17:03:51.553Z,-2.66
2022-12-11T17:07:53.087Z,-2.68
2022-12-11T17:11:54.570Z,-2.79
2022-12-11T17:15:56.047Z,-2.24
2022-12-11T17:19:57.587Z,-2.66
2022-12-11T17:23:59.310Z,-2.62
2022-12-11T17:28:00.732Z,-2.71
2022-12-11T17:32:03.257Z,-2.96
2022-12-11T17:36:07.545Z,-2.78
2022-12-11T17:40:09.475Z,-2.70
2022-12-11T17:44:19.858Z,-2.77
2022-12-11T17:48:24.777Z,-2.61
2022-12-11T17:52:34.486Z,-2.65
2022-12-11T17:57:00.201Z,-2.56
2022-12-11T18:01:08.351Z,-2.55
2022-12-11T18:05:11.596Z,-2.64
2022-12-11T18:09:13.247Z,-2.63
2022-12-11T18:13:17.957Z,-2.66
2022-12-11T18:17:19.423Z,-2.87
2022-12-11T18:21:28.088Z,-2.77
2022-12-11T18:25:31.217Z,-2.63
2022-12-11T18:29:36.003Z,-2.77
2022-12-11T18:33:39.525Z,-2.73
2022-12-11T18:37:41.227Z,-2.81
2022-12-11T18:41:43.062Z,-2.92
2022-12-11T18:45:46.473Z,-2.82
2022-12-11T18:49:48.084Z,-3.02
2022-12-11T18:53:50.235Z,-2.95
2022-12-11T18:57:51.748Z,-2.81
2022-12-11T19:01:53.297Z,-2.77
2022-12-11T19:05:54.774Z,-2.69
2022-12-11T19:09:56.271Z,-2.72
2022-12-11T19:13:57.835Z,-2.80
2022-12-11T19:17:59.304Z,-2.85
2022-12-11T19:22:00.749Z,-2.88
2022-12-11T19:26:02.462Z,-2.84
2022-12-11T19:30:04.613Z,-2.77
2022-12-11T19:34:06.097Z,-2.77
2022-12-11T19:38:08.401Z,-3.05
2022-12-11T19:42:09.929Z,-2.98
2022-12-11T19:46:12.788Z,-2.89
2022-12-11T19:50:14.359Z,-2.68
2022-12-11T19:54:17.614Z,-3.05
2022-12-11T19:58:19.641Z,-2.95
2022-12-11T20:02:21.172Z,-2.89
2022-12-11T20:06:23.667Z,-2.96
2022-12-11T20:10:25.128Z,-2.90
2022-12-11T20:14:26.753Z,-2.95
2022-12-11T20:18:28.512Z,-2.75
2022-12-11T20:22:29.975Z,-2.78
2022-12-11T20:26:32.540Z,-2.69
2022-12-11T20:30:38.552Z,-2.60
2022-12-11T20:34:40.238Z,-2.70
2022-12-11T20:38:42.192Z,-2.76
2022-12-11T20:42:44.140Z,-2.72
2022-12-11T20:46:45.664Z,-2.75
2022-12-11T20:50:53.508Z,-2.63
2022-12-11T20:54:55.017Z,-2.60
2022-12-11T20:58:57.894Z,-2.93
2022-12-11T21:02:59.380Z,-3.05
2022-12-11T21:07:00.929Z,-2.84
2022-12-11T21:11:05.674Z,-2.79
2022-12-11T21:15:11.320Z,-2.88
2022-12-11T21:19:17.068Z,-2.99
2022-12-11T21:23:18.762Z,-2.95
2022-12-11T21:27:22.945Z,-2.84
2022-12-11T21:31:35.469Z,-2.98
2022-12-11T21:35:39.977Z,-2.93
2022-12-11T21:39:44.276Z,-2.82
2022-12-11T21:44:41.026Z,-3.14
2022-12-11T21:48:08.873Z,-3.02
2022-12-11T21:52:14.561Z,-3.02
2022-12-11T21:56:22.470Z,-3.04
2022-12-11T22:00:24.660Z,-3.04
2022-12-11T22:04:29.384Z,-3.03
2022-12-11T22:08:30.885Z,-3.16
2022-12-11T22:12:37.886Z,-2.93
2022-12-11T22:16:56.472Z,-3.39
2022-12-11T22:20:58.720Z,-3.09
2022-12-11T22:25:00.259Z,-3.02
2022-12-11T22:29:01.819Z,-3.05
2022-12-11T22:33:03.435Z,-2.98
2022-12-11T22:37:04.887Z,-3.16
2022-12-11T22:41:18.980Z,-3.21
2022-12-11T22:45:24.193Z,-3.15
2022-12-11T22:49:25.826Z,-2.99
2022-12-11T22:53:27.248Z,-2.90
2022-12-11T22:57:28.751Z,-2.93
2022-12-11T23:01:30.259Z,-2.86
2022-12-11T23:05:31.810Z,-2.82
2022-12-11T23:09:33.583Z,-2.74
2022-12-11T23:13:35.036Z,-2.71
2022-12-11T23:17:36.525Z,-2.66
2022-12-11T23:21:39.033Z,-2.66
2022-12-11T23:25:40.473Z,-2.63
2022-12-11T23:29:41.939Z,-2.52
2022-12-11T23:33:43.465Z,-2.59
2022-12-11T23:37:44.910Z,-2.78
2022-12-11T23:41:46.399Z,-2.72
2022-12-11T23:45:47.877Z,-2.85
2022-12-11T23:49:49.325Z,-2.84
2022-12-11T23:53:51.166Z,-3.19
2022-12-11T23:57:52.664Z,-3.23
